Time;durP1;ratioP1;P1;durP2;ratioP2;P2;SDS_P1;SDS_P2;PMS_P1;PMS_P2;Temp;Humidity;BMP_temperature;BMP_pressure;BME280_temperature;BME280_humidity;BME280_pressure;Samples;Min_cycle;Max_cycle;Signal;HPM_P1;HPM_P2
2023/09/26 00:00:24;;;;;;;6.57;2.13;;;;;;;15.48;88.32;102264.66;5034922;27;101002;-27
2023/09/26 00:02:50;;;;;;;6.07;1.90;;;;;;;15.49;88.29;102269.16;5053324;27;99379;-28
2023/09/26 00:05:18;;;;;;;3.22;1.85;;;;;;;15.44;88.71;102260.34;5035055;27;96735;-27
2023/09/26 00:07:44;;;;;;;4.15;2.30;;;;;;;15.45;88.73;102265.72;5035446;27;96873;-27
2023/09/26 00:10:10;;;;;;;4.60;2.17;;;;;;;15.48;88.29;102264.66;5035033;27;99371;-27
2023/09/26 00:12:36;;;;;;;4.80;2.15;;;;;;;15.49;88.52;102271.88;5034946;27;100878;-27
2023/09/26 00:15:01;;;;;;;4.22;1.92;;;;;;;15.48;88.87;102273.75;5052611;27;96590;-28
2023/09/26 00:17:27;;;;;;;3.85;2.33;;;;;;;15.48;89.08;102270.13;5035231;27;96775;-27
2023/09/26 00:19:53;;;;;;;4.55;2.30;;;;;;;15.43;88.59;102270.41;5034554;27;100606;-27
2023/09/26 00:22:18;;;;;;;4.90;2.05;;;;;;;15.44;88.86;102276.75;5053195;27;97290;-32
2023/09/26 00:24:43;;;;;;;4.65;2.50;;;;;;;15.44;88.94;102282.19;5052711;27;96628;-27
2023/09/26 00:27:09;;;;;;;4.40;2.10;;;;;;;15.39;89.04;102281.59;5053069;27;96826;-27
2023/09/26 00:29:34;;;;;;;6.38;2.35;;;;;;;15.37;89.12;102278.06;5052917;27;98052;-27
2023/09/26 00:32:00;;;;;;;5.13;2.15;;;;;;;15.40;89.23;102284.25;5053046;27;99420;-29
2023/09/26 00:34:25;;;;;;;6.90;2.72;;;;;;;15.36;89.54;102289.97;5053512;27;96555;-27
2023/09/26 00:36:51;;;;;;;3.95;1.95;;;;;;;15.34;89.45;102284.59;5034441;27;96839;-27
2023/09/26 00:39:17;;;;;;;3.55;2.00;;;;;;;15.33;89.31;102285.56;5051940;27;99916;-27
2023/09/26 00:41:42;;;;;;;4.43;2.10;;;;;;;15.33;89.67;102285.56;5052751;27;97976;-27
2023/09/26 00:44:08;;;;;;;4.40;2.20;;;;;;;15.32;89.43;102288.38;5052752;27;96646;-27
2023/09/26 00:46:34;;;;;;;5.57;2.42;;;;;;;15.26;89.79;102284.19;5052443;27;96809;-27
2023/09/26 00:49:01;;;;;;;3.00;1.85;;;;;;;15.27;89.33;102286.78;5034645;27;96985;-29
2023/09/26 00:51:27;;;;;;;3.75;1.98;;;;;;;15.27;89.59;102285.94;5034366;27;100859;-27
2023/09/26 00:53:54;;;;;;;6.60;2.38;;;;;;;15.24;89.68;102281.53;5034164;27;96625;-27
2023/09/26 00:56:19;;;;;;;4.95;2.30;;;;;;;15.22;89.65;102282.59;5034804;27;96799;-27
2023/09/26 00:58:46;;;;;;;4.72;2.40;;;;;;;15.21;89.58;102278.97;5052993;27;97419;-27
2023/09/26 01:01:12;;;;;;;5.32;2.08;;;;;;;15.21;89.20;102280.84;5034020;27;100735;-28
2023/09/26 01:03:37;;;;;;;3.70;2.35;;;;;;;15.21;89.57;102286.31;5052276;27;96617;-27
2023/09/26 01:06:03;;;;;;;4.22;2.20;;;;;;;15.16;89.68;102274.75;5034208;27;96807;-28
2023/09/26 01:08:29;;;;;;;4.30;2.25;;;;;;;15.13;89.58;102283.13;5052061;27;97876;-27
2023/09/26 01:10:57;;;;;;;5.55;2.08;;;;;;;15.15;89.64;102276.59;5033117;27;100761;-28
2023/09/26 01:13:22;;;;;;;4.45;2.05;;;;;;;15.16;89.37;102281.09;5052326;27;96487;-27
2023/09/26 01:15:48;;;;;;;6.53;2.00;;;;;;;15.16;89.35;102278.38;5052593;27;96789;-27
2023/09/26 01:18:15;;;;;;;4.55;2.10;;;;;;;15.18;89.66;102284.63;5052132;27;99137;-28
2023/09/26 01:20:45;;;;;;;3.60;2.13;;;;;;;15.15;89.84;102273.00;5033969;27;100948;-29
2023/09/26 01:23:13;;;;;;;3.88;1.95;;;;;;;15.17;89.09;102271.94;5033872;27;96651;-27
2023/09/26 01:25:40;;;;;;;3.30;2.20;;;;;;;15.15;89.14;102273.00;5034000;27;96784;-27
2023/09/26 01:28:07;;;;;;;6.28;2.80;;;;;;;15.21;89.12;102276.25;5033185;27;101490;-28
2023/09/26 01:30:37;;;;;;;5.25;2.72;;;;;;;15.21;89.25;102281.72;5033668;27;100557;-27
2023/09/26 01:33:05;;;;;;;5.97;2.38;;;;;;;15.21;89.26;102284.44;5052236;27;96754;-27
2023/09/26 01:35:31;;;;;;;4.93;2.53;;;;;;;15.22;89.43;102269.81;5033346;27;96878;-27
2023/09/26 01:37:56;;;;;;;5.28;2.70;;;;;;;15.21;89.22;102262.59;5052184;27;97514;-27
2023/09/26 01:40:22;;;;;;;6.00;2.70;;;;;;;15.23;88.98;102255.22;5052075;27;97803;-27
2023/09/26 01:42:47;;;;;;;5.65;2.47;;;;;;;15.26;89.81;102256.88;5051959;27;96808;-27
2023/09/26 01:45:12;;;;;;;6.30;3.05;;;;;;;15.25;89.37;102245.09;5052044;27;96766;-27
2023/09/26 01:47:40;;;;;;;3.80;2.35;;;;;;;15.32;89.32;102250.16;5052007;27;97941;-26
2023/09/26 01:50:07;;;;;;;6.50;3.03;;;;;;;15.29;89.59;102229.38;5051693;27;97441;-28
2023/09/26 01:52:35;;;;;;;5.15;3.00;;;;;;;15.28;89.47;102223.06;5033004;27;97052;-27
2023/09/26 01:55:07;;;;;;;4.65;2.78;;;;;;;15.32;89.90;102237.38;5033433;27;98038;-27
2023/09/26 01:57:32;;;;;;;6.05;2.92;;;;;;;15.31;90.00;102237.50;5033401;27;100581;-27
2023/09/26 02:00:11;;;;;;;5.80;2.65;;;;;;;15.32;89.63;102239.25;5033243;27;101105;-27
2023/09/26 02:02:39;;;;;;;6.90;2.90;;;;;;;15.29;89.95;102238.44;5051868;27;96668;-27
2023/09/26 02:05:06;;;;;;;4.65;2.83;;;;;;;15.25;89.98;102236.91;5051407;27;96832;-27
2023/09/26 02:07:31;;;;;;;5.20;3.03;;;;;;;15.23;90.31;102230.66;5033208;27;101993;-27
2023/09/26 02:09:56;;;;;;;4.72;2.80;;;;;;;15.25;90.32;102241.44;5052002;27;97257;-28
2023/09/26 02:12:22;;;;;;;6.28;2.97;;;;;;;15.19;90.61;102233.63;5051862;27;96626;-28
2023/09/26 02:14:48;;;;;;;5.18;2.67;;;;;;;15.18;90.58;102234.59;5051677;27;96940;-27
2023/09/26 02:17:14;;;;;;;5.18;2.55;;;;;;;15.17;90.19;102233.72;5051129;27;97368;-28
2023/09/26 02:19:39;;;;;;;4.57;2.30;;;;;;;15.16;90.55;102228.34;5051649;27;97779;-26
2023/09/26 02:22:05;;;;;;;6.15;3.05;;;;;;;15.15;90.61;102226.59;5054477;27;96607;-27
2023/09/26 02:24:31;;;;;;;5.47;2.70;;;;;;;15.09;90.49;102222.38;5055115;27;96685;-27
2023/09/26 02:26:57;;;;;;;6.22;3.05;;;;;;;15.11;91.01;102215.00;5054833;27;99362;-28
2023/09/26 02:29:23;;;;;;;5.57;2.83;;;;;;;15.07;91.16;102218.88;5036470;27;100719;-27
2023/09/26 02:31:49;;;;;;;8.40;2.70;;;;;;;15.05;90.93;102212.63;5054704;27;96957;-27
2023/09/26 02:34:14;;;;;;;7.25;3.00;;;;;;;15.03;90.96;102217.28;5055416;27;96755;-27
2023/09/26 02:36:39;;;;;;;5.63;2.78;;;;;;;15.00;90.92;102217.47;5054946;27;97291;-27
2023/09/26 02:39:05;;;;;;;5.75;2.63;;;;;;;14.96;91.21;102221.31;5054649;27;98689;-27
2023/09/26 02:41:30;;;;;;;5.90;2.53;;;;;;;14.94;90.94;102221.41;5054220;27;96584;-28
2023/09/26 02:43:55;;;;;;;4.53;2.63;;;;;;;14.94;90.83;102223.25;5054658;27;96949;-27
2023/09/26 02:46:21;;;;;;;5.78;2.83;;;;;;;14.94;90.95;102224.13;5054001;27;99318;-28
2023/09/26 02:48:46;;;;;;;3.15;2.08;;;;;;;14.90;91.18;102216.22;5054514;27;97463;-27
2023/09/26 02:51:12;;;;;;;8.23;2.78;;;;;;;14.93;91.29;102224.25;5054419;27;96627;-27
2023/09/26 02:53:38;;;;;;;5.32;2.83;;;;;;;14.89;91.08;102231.72;5054804;27;96886;-27
2023/09/26 02:56:03;;;;;;;4.32;2.40;;;;;;;14.93;90.87;102230.56;5054309;27;99576;-27
2023/09/26 02:58:29;;;;;;;8.90;2.33;;;;;;;14.86;91.07;102223.72;5054677;27;98809;-27
2023/09/26 03:00:54;;;;;;;4.65;2.25;;;;;;;14.90;90.72;102228.03;5054347;27;96652;-27
2023/09/26 03:03:19;;;;;;;6.13;2.65;;;;;;;14.90;90.84;102222.56;5054374;27;96785;-27
2023/09/26 03:05:53;;;;;;;5.20;2.78;;;;;;;14.90;90.63;102218.94;5053891;27;97485;-27
2023/09/26 03:08:18;;;;;;;6.80;3.17;;;;;;;14.87;90.68;102220.00;5054501;27;97925;-28
2023/09/26 03:10:43;;;;;;;5.30;2.88;;;;;;;14.90;90.80;102218.94;5054659;27;96666;-27
2023/09/26 03:13:09;;;;;;;5.63;3.00;;;;;;;14.89;90.68;102217.19;5054147;27;96875;-28
2023/09/26 03:15:34;;;;;;;5.38;3.42;;;;;;;14.83;91.02;102218.44;5035787;27;97973;-27
2023/09/26 03:18:00;;;;;;;4.88;3.05;;;;;;;14.79;90.97;102204.09;5054197;27;97317;-27
2023/09/26 03:20:26;;;;;;;7.13;3.55;;;;;;;14.83;91.12;102211.13;5054265;27;96673;-28
2023/09/26 03:22:51;;;;;;;8.90;4.00;;;;;;;14.84;91.23;102207.41;5054471;27;96765;-26
2023/09/26 03:25:16;;;;;;;9.57;4.00;;;;;;;14.86;91.07;102204.63;5054180;27;97544;-27
2023/09/26 03:27:45;;;;;;;12.25;5.07;;;;;;;14.87;91.14;102195.44;5053929;27;97250;-27
2023/09/26 03:30:11;;;;;;;8.20;4.43;;;;;;;14.86;90.89;102183.66;5053198;27;96599;-27
2023/09/26 03:32:36;;;;;;;10.52;4.80;;;;;;;14.86;91.44;102178.22;5034756;27;96827;-27
2023/09/26 03:35:01;;;;;;;8.02;3.95;;;;;;;14.85;91.23;102171.00;5053283;27;98946;-27
2023/09/26 03:37:27;;;;;;;7.65;3.55;;;;;;;14.87;91.50;102173.63;5053691;27;99758;-27
2023/09/26 03:39:52;;;;;;;8.68;4.80;;;;;;;14.85;91.73;102184.66;5053674;27;96476;-28
2023/09/26 03:42:17;;;;;;;6.80;3.92;;;;;;;14.80;91.99;102173.13;5053945;27;96839;-27
2023/09/26 03:44:43;;;;;;;8.07;4.32;;;;;;;14.84;92.03;102174.69;5053501;27;97927;-27
2023/09/26 03:47:09;;;;;;;7.53;4.20;;;;;;;14.80;91.90;102170.41;5053764;27;97602;-27
2023/09/26 03:49:34;;;;;;;6.43;3.53;;;;;;;14.79;91.90;102178.66;5053879;27;96534;-27
2023/09/26 03:52:00;;;;;;;6.93;3.83;;;;;;;14.80;91.90;102184.03;5053918;27;96813;-27
2023/09/26 03:54:25;;;;;;;7.50;3.88;;;;;;;14.76;91.79;102174.25;5052932;27;99603;-27
2023/09/26 03:56:50;;;;;;;7.38;3.92;;;;;;;14.79;92.02;102176.81;5053585;27;97082;-27
2023/09/26 03:59:16;;;;;;;8.77;3.92;;;;;;;14.74;91.76;102162.56;5053700;27;96729;-27
2023/09/26 04:01:42;;;;;;;6.45;3.60;;;;;;;14.79;92.31;102163.16;5053262;27;96813;-28
2023/09/26 04:04:08;;;;;;;5.95;3.35;;;;;;;14.79;92.07;102165.88;5034849;27;100887;-27
2023/09/26 04:06:34;;;;;;;6.60;3.50;;;;;;;14.76;91.77;102157.91;5053156;27;99282;-28
2023/09/26 04:08:59;;;;;;;8.38;3.58;;;;;;;14.78;91.85;102166.88;5053393;27;96644;-27
2023/09/26 04:11:25;;;;;;;7.00;3.63;;;;;;;14.77;92.06;102162.38;5035481;27;96798;-27
2023/09/26 04:13:50;;;;;;;6.43;3.67;;;;;;;14.77;92.34;102166.94;5052858;27;99458;-27
2023/09/26 04:16:16;;;;;;;6.82;3.83;;;;;;;14.76;92.18;102173.38;5053188;27;97410;-27
2023/09/26 04:18:44;;;;;;;6.30;3.53;;;;;;;14.73;92.25;102166.28;5052713;27;96750;-27
2023/09/26 04:21:10;;;;;;;7.93;3.75;;;;;;;14.73;92.13;102166.28;5034758;27;97369;-27
2023/09/26 04:23:35;;;;;;;8.30;3.90;;;;;;;14.70;92.13;102155.50;5052728;27;99220;-27
2023/09/26 04:26:13;;;;;;;5.32;3.15;;;;;;;14.64;92.39;102153.16;5052816;27;99415;-28
2023/09/26 04:28:40;;;;;;;5.97;3.42;;;;;;;14.71;92.35;102170.06;5052996;27;97280;-27
2023/09/26 04:31:17;;;;;;;8.10;4.28;;;;;;;14.71;92.30;102168.19;5034869;27;96868;-26
2023/09/26 04:33:47;;;;;;;7.18;3.72;;;;;;;14.67;92.71;102166.59;5034686;27;101390;-27
2023/09/26 04:36:13;;;;;;;7.50;3.95;;;;;;;14.66;92.82;102167.59;5034658;27;100732;-27
2023/09/26 04:38:38;;;;;;;8.63;3.85;;;;;;;14.68;92.14;102164.75;5053105;27;96442;-27
2023/09/26 04:41:04;;;;;;;6.93;4.10;;;;;;;14.64;92.50;102151.31;5052726;27;96778;-27
2023/09/26 04:43:33;;;;;;;7.47;3.85;;;;;;;14.68;92.48;102156.56;5033834;27;101178;-27
2023/09/26 04:45:59;;;;;;;7.60;4.07;;;;;;;14.60;92.59;102148.84;5052208;27;97694;-27
2023/09/26 04:48:24;;;;;;;7.20;3.85;;;;;;;14.68;92.07;102151.13;5034583;27;96598;-27
2023/09/26 04:50:50;;;;;;;7.00;3.92;;;;;;;14.62;92.32;102146.91;5052941;27;96797;-28
2023/09/26 04:53:15;;;;;;;16.27;4.43;;;;;;;14.65;92.38;102142.16;5052225;27;99237;-27
2023/09/26 04:55:44;;;;;;;7.57;4.05;;;;;;;14.70;91.94;102149.19;5034178;27;99343;-27
2023/09/26 04:58:09;;;;;;;6.50;4.38;;;;;;;14.68;92.26;102149.25;5052808;27;96575;-27
2023/09/26 05:00:38;;;;;;;7.10;4.07;;;;;;;14.66;92.75;102148.50;5053031;27;96589;-27
2023/09/26 05:03:04;;;;;;;9.02;4.18;;;;;;;14.66;92.71;102159.41;5034066;27;100976;-28
2023/09/26 05:05:29;;;;;;;8.40;3.70;;;;;;;14.70;92.51;102163.69;5051567;27;99647;-27
2023/09/26 05:07:55;;;;;;;6.70;4.05;;;;;;;14.69;92.38;102150.16;5051351;27;97024;-28
2023/09/26 05:10:21;;;;;;;8.35;3.70;;;;;;;14.60;92.27;102140.66;5051513;27;96825;-26
2023/09/26 05:12:46;;;;;;;6.80;3.58;;;;;;;14.64;92.49;102144.97;5052347;27;97995;-27
2023/09/26 05:15:16;;;;;;;8.93;3.75;;;;;;;14.65;92.58;102146.72;5051084;27;98350;-27
2023/09/26 05:17:42;;;;;;;7.70;4.10;;;;;;;14.65;92.38;102160.34;5052472;27;96727;-27
2023/09/26 05:20:10;;;;;;;5.90;3.80;;;;;;;14.61;92.53;102146.03;5033855;27;96844;-27
2023/09/26 05:22:37;;;;;;;6.15;4.13;;;;;;;14.65;92.75;102144.88;5052063;27;98098;-27
2023/09/26 05:25:03;;;;;;;8.23;4.15;;;;;;;14.60;92.50;102132.47;5034187;27;100763;-27
2023/09/26 05:27:28;;;;;;;9.07;3.78;;;;;;;14.63;92.43;102140.47;5034044;27;96674;-27
2023/09/26 05:29:54;;;;;;;8.65;4.18;;;;;;;14.63;92.35;102132.28;5050925;27;97544;-28
2023/09/26 05:32:20;;;;;;;8.55;3.90;;;;;;;14.59;92.73;102137.06;5030565;27;101002;-30
2023/09/26 05:34:45;;;;;;;9.95;3.80;;;;;;;14.63;92.49;102148.66;5049827;27;97310;-32
2023/09/26 05:37:10;;;;;;;8.85;4.20;;;;;;;14.56;92.84;102145.44;5049218;27;96976;-30
2023/09/26 05:39:36;;;;;;;7.88;4.30;;;;;;;14.59;93.16;102153.41;5049609;27;97192;-28
2023/09/26 05:42:01;;;;;;;7.57;3.53;;;;;;;14.57;92.37;102149.91;5049567;27;98105;-27
2023/09/26 05:44:26;;;;;;;9.38;3.53;;;;;;;14.59;92.44;102149.81;5049308;27;99360;-32
2023/09/26 05:46:52;;;;;;;7.45;3.90;;;;;;;14.57;92.50;102151.75;5049655;27;97427;-29
2023/09/26 05:49:17;;;;;;;8.05;3.80;;;;;;;14.53;92.33;102139.22;5051873;27;96722;-27
2023/09/26 05:51:42;;;;;;;7.68;4.00;;;;;;;14.59;92.84;102158.00;5051749;27;98049;-28
2023/09/26 05:54:08;;;;;;;10.07;4.20;;;;;;;14.54;92.70;102149.19;5051936;27;97660;-27
2023/09/26 05:56:33;;;;;;;8.30;4.45;;;;;;;14.58;92.80;102162.56;5053320;27;96556;-27
2023/09/26 05:58:59;;;;;;;6.63;3.67;;;;;;;14.58;92.89;102153.50;5055703;27;96755;-27
2023/09/26 06:01:24;;;;;;;7.60;3.55;;;;;;;14.59;92.84;102158.00;5055331;27;97936;-27
2023/09/26 06:03:50;;;;;;;7.60;3.75;;;;;;;14.55;92.96;102149.09;5055002;27;97923;-27
2023/09/26 06:06:16;;;;;;;6.85;3.97;;;;;;;14.57;92.90;102154.47;5036926;27;96636;-27
2023/09/26 06:08:41;;;;;;;9.85;3.95;;;;;;;14.62;92.78;102160.53;5055544;27;96792;-27
2023/09/26 06:11:09;;;;;;;6.63;3.38;;;;;;;14.56;92.56;102145.44;5055389;27;97349;-27
2023/09/26 06:13:34;;;;;;;9.48;4.15;;;;;;;14.58;93.20;102154.38;5055266;27;99249;-27
2023/09/26 06:16:03;;;;;;;8.55;3.92;;;;;;;14.62;92.76;102147.78;5054959;27;96745;-27
2023/09/26 06:18:29;;;;;;;13.27;4.45;;;;;;;14.58;92.53;102134.41;5036827;27;96985;-27
2023/09/26 06:20:54;;;;;;;7.68;4.35;;;;;;;14.63;92.51;102132.28;5054300;27;97953;-27
2023/09/26 06:23:19;;;;;;;7.47;4.50;;;;;;;14.67;92.61;102142.06;5054829;27;99865;-27
2023/09/26 06:25:45;;;;;;;8.55;4.28;;;;;;;14.67;92.18;102133.88;5055443;27;96728;-27
2023/09/26 06:28:10;;;;;;;9.95;4.47;;;;;;;14.69;92.39;102131.94;5055049;27;96730;-27
2023/09/26 06:30:36;;;;;;;8.50;4.15;;;;;;;14.74;92.47;102139.88;5054589;27;99629;-28
2023/09/26 06:33:01;;;;;;;7.45;3.83;;;;;;;14.74;92.38;102146.19;5054832;27;97813;-27
2023/09/26 06:35:26;;;;;;;7.13;4.03;;;;;;;14.75;92.53;102141.59;5054684;27;96773;-27
2023/09/26 06:37:52;;;;;;;10.52;4.18;;;;;;;14.82;92.61;102148.47;5055283;27;96719;-27
2023/09/26 06:40:17;;;;;;;11.48;3.95;;;;;;;14.86;92.74;102158.25;5054338;27;98772;-27
2023/09/26 06:42:42;;;;;;;8.60;3.47;;;;;;;14.88;92.18;102152.69;5054661;27;97400;-27
2023/09/26 06:45:09;;;;;;;8.65;3.90;;;;;;;14.92;91.91;102149.72;5053925;27;96564;-27
2023/09/26 06:47:35;;;;;;;9.52;4.63;;;;;;;14.99;91.89;102150.19;5053283;27;96914;-27
2023/09/26 06:50:00;;;;;;;6.00;3.95;;;;;;;15.00;91.53;102130.13;5052583;27;98389;-29
2023/09/26 06:52:25;;;;;;;8.13;4.10;;;;;;;15.06;91.98;102140.66;5052797;27;97199;-27
2023/09/26 06:54:51;;;;;;;10.45;4.05;;;;;;;15.11;92.29;102133.13;5054491;27;96724;-31
2023/09/26 06:57:20;;;;;;;6.70;3.85;;;;;;;15.15;92.16;102122.88;5035993;27;96783;-27
2023/09/26 06:59:49;;;;;;;7.00;4.07;;;;;;;15.22;91.79;102118.81;5035930;27;101085;-27
2023/09/26 07:02:15;;;;;;;8.52;4.07;;;;;;;15.28;91.92;102122.03;5036322;27;101071;-27
2023/09/26 07:04:41;;;;;;;8.95;3.53;;;;;;;15.33;92.57;102118.16;5054015;27;96808;-27
2023/09/26 07:07:06;;;;;;;6.50;4.25;;;;;;;15.41;91.43;102113.09;5052285;27;96863;-28
2023/09/26 07:09:31;;;;;;;8.63;4.05;;;;;;;15.59;91.02;102120.16;5051247;27;97460;-31
2023/09/26 07:11:57;;;;;;;12.27;4.85;;;;;;;15.70;90.69;102124.97;5052088;27;97271;-28
2023/09/26 07:14:22;;;;;;;5.88;3.78;;;;;;;15.82;89.71;102134.25;5051679;27;97016;-29
2023/09/26 07:16:47;;;;;;;9.60;4.15;;;;;;;15.94;89.68;102136.19;5051992;27;97264;-27
2023/09/26 07:19:13;;;;;;;6.28;4.20;;;;;;;16.04;89.36;102120.09;5051300;27;97940;-32
2023/09/26 07:21:38;;;;;;;7.63;3.97;;;;;;;16.17;88.70;102122.94;5051762;27;97868;-27
2023/09/26 07:24:04;;;;;;;6.13;3.75;;;;;;;16.24;88.23;102121.53;5054098;27;96684;-27
2023/09/26 07:26:31;;;;;;;7.65;4.22;;;;;;;16.32;88.10;102128.25;5054419;27;96959;-27
2023/09/26 07:28:56;;;;;;;6.00;3.75;;;;;;;16.42;87.95;102125.81;5053701;27;98799;-28
2023/09/26 07:31:22;;;;;;;8.32;4.50;;;;;;;16.48;87.60;102125.41;5053646;27;99400;-27
2023/09/26 07:33:47;;;;;;;14.02;3.88;;;;;;;16.51;87.63;102125.19;5053367;27;96653;-27
2023/09/26 07:36:13;;;;;;;7.63;4.07;;;;;;;16.55;87.93;102124.00;5053594;27;96833;-27
2023/09/26 07:38:38;;;;;;;8.10;4.18;;;;;;;16.62;87.42;102112.66;5053699;27;99267;-27
2023/09/26 07:41:04;;;;;;;8.82;4.20;;;;;;;16.62;87.22;102119.00;5053868;27;97312;-29
2023/09/26 07:43:32;;;;;;;5.90;3.42;;;;;;;16.60;87.01;102120.97;5053836;27;96660;-27
2023/09/26 07:46:02;;;;;;;8.77;4.18;;;;;;;16.66;86.80;102130.63;5034900;27;96840;-27
2023/09/26 07:48:27;;;;;;;11.15;4.50;;;;;;;16.65;86.82;102126.13;5035066;27;100793;-28
2023/09/26 07:50:53;;;;;;;8.35;4.55;;;;;;;16.68;87.07;102128.66;5054117;27;98373;-27
2023/09/26 07:53:18;;;;;;;8.68;4.05;;;;;;;16.67;87.35;102133.25;5053487;27;96604;-27
2023/09/26 07:55:44;;;;;;;7.03;4.43;;;;;;;16.65;87.13;102128.88;5053438;27;96874;-27
2023/09/26 07:58:09;;;;;;;10.50;4.00;;;;;;;16.64;87.57;102127.13;5053171;27;97894;-28
2023/09/26 08:00:34;;;;;;;6.95;4.03;;;;;;;16.58;87.99;102106.50;5053272;27;99221;-27
2023/09/26 08:03:01;;;;;;;7.55;3.97;;;;;;;16.63;87.40;102117.16;5053616;27;96654;-27
2023/09/26 08:05:26;;;;;;;8.60;3.90;;;;;;;16.60;87.90;102111.91;5053110;27;96921;-27
2023/09/26 08:07:52;;;;;;;6.82;3.85;;;;;;;16.64;88.07;102121.66;5052687;27;96748;-27
2023/09/26 08:10:17;;;;;;;7.72;4.13;;;;;;;16.63;87.64;102119.88;5052097;27;99137;-27
2023/09/26 08:12:42;;;;;;;8.77;4.00;;;;;;;16.66;88.24;102130.63;5053411;27;96749;-27
2023/09/26 08:15:08;;;;;;;8.85;4.57;;;;;;;16.63;88.24;102125.34;5052972;27;96811;-27
2023/09/26 08:17:34;;;;;;;6.07;4.10;;;;;;;16.72;88.39;102127.47;5052630;27;99335;-27
2023/09/26 08:20:00;;;;;;;8.32;4.00;;;;;;;16.76;88.17;102115.34;5052417;27;99805;-27
2023/09/26 08:22:25;;;;;;;7.45;4.22;;;;;;;16.85;87.93;102122.97;5052856;27;96751;-27
2023/09/26 08:24:51;;;;;;;9.90;5.00;;;;;;;16.93;87.67;102116.97;5053096;27;96794;-27
2023/09/26 08:27:16;;;;;;;14.05;4.18;;;;;;;17.10;87.06;102132.25;5052692;27;99586;-27
2023/09/26 08:29:41;;;;;;;7.10;4.22;;;;;;;17.18;86.59;102130.75;5034617;27;101466;-27
2023/09/26 08:32:07;;;;;;;11.02;4.55;;;;;;;17.30;86.59;102128.13;5052953;27;96571;-27
2023/09/26 08:34:32;;;;;;;6.43;3.58;;;;;;;17.50;85.77;102129.50;5053076;27;96863;-27
2023/09/26 08:36:57;;;;;;;8.65;4.80;;;;;;;17.63;85.37;102130.34;5052543;27;99388;-28
2023/09/26 08:39:23;;;;;;;5.75;3.75;;;;;;;17.64;85.02;102129.38;5053099;27;99353;-27
2023/09/26 08:41:50;;;;;;;6.47;3.67;;;;;;;17.73;84.90;102130.56;5052961;27;96725;-27
2023/09/26 08:44:15;;;;;;;6.90;3.75;;;;;;;17.77;84.76;102116.53;5034562;27;96872;-27
2023/09/26 08:46:45;;;;;;;8.35;3.90;;;;;;;17.88;85.07;102117.69;5051562;27;99351;-27
2023/09/26 08:49:10;;;;;;;6.28;3.90;;;;;;;17.99;84.48;102115.03;5034194;27;101154;-27
2023/09/26 08:51:36;;;;;;;6.97;3.60;;;;;;;18.06;84.14;102113.59;5052696;27;96658;-27
2023/09/26 08:54:02;;;;;;;8.20;3.78;;;;;;;18.08;83.71;102106.13;5034452;27;96889;-27
2023/09/26 08:56:28;;;;;;;6.57;3.78;;;;;;;18.08;83.62;102110.75;5034407;27;101192;-27
2023/09/26 08:58:55;;;;;;;7.82;3.60;;;;;;;18.06;83.94;102113.59;5052859;27;97285;-29
2023/09/26 09:01:20;;;;;;;8.25;3.90;;;;;;;18.01;84.17;102105.69;5033989;27;96689;-27
2023/09/26 09:03:46;;;;;;;7.10;3.65;;;;;;;17.99;84.28;102102.19;5052651;27;96767;-27
2023/09/26 09:06:12;;;;;;;6.75;3.50;;;;;;;17.94;84.21;102103.53;5034021;27;100937;-27
2023/09/26 09:08:38;;;;;;;6.60;3.47;;;;;;;17.90;84.45;102108.38;5052297;27;99220;-27
2023/09/26 09:11:03;;;;;;;5.93;3.08;;;;;;;17.93;84.82;102102.66;5033744;27;97702;-27
2023/09/26 09:13:30;;;;;;;7.10;3.63;;;;;;;17.94;84.77;102106.25;5052291;27;96778;-27
2023/09/26 09:16:11;;;;;;;6.18;3.25;;;;;;;17.88;84.34;102093.03;5052130;27;98937;-27
2023/09/26 09:18:44;;;;;;;6.78;3.03;;;;;;;17.88;84.03;102090.28;5034076;27;101761;-27
2023/09/26 09:21:32;;;;;;;5.90;3.13;;;;;;;17.93;84.18;102101.78;5052288;27;96528;-27
2023/09/26 09:24:07;;;;;;;8.45;3.35;;;;;;;17.95;83.72;102102.56;5034051;27;96853;-28
2023/09/26 09:26:35;;;;;;;6.22;3.42;;;;;;;17.93;83.93;102101.78;5033896;27;100756;-28
2023/09/26 09:29:21;;;;;;;6.95;3.63;;;;;;;18.03;83.59;102113.81;5034038;27;101027;-27
2023/09/26 09:31:48;;;;;;;5.07;3.15;;;;;;;18.05;83.26;102117.34;5036278;27;96564;-27
2023/09/26 09:34:15;;;;;;;5.88;3.45;;;;;;;18.12;82.99;102115.91;5037503;27;96922;-27
2023/09/26 09:36:40;;;;;;;8.52;3.83;;;;;;;18.13;82.99;102100.31;5036383;27;100857;-27
2023/09/26 09:39:09;;;;;;;7.05;3.17;;;;;;;18.23;82.02;102110.50;5055473;27;99210;-27
2023/09/26 09:41:38;;;;;;;9.70;3.70;;;;;;;18.20;81.98;102105.22;5055495;27;96525;-27
2023/09/26 09:44:04;;;;;;;6.10;3.17;;;;;;;18.38;82.28;102111.22;5037545;27;96849;-27
2023/09/26 09:46:33;;;;;;;5.72;3.25;;;;;;;18.42;81.94;102107.28;5054971;27;97895;-27
2023/09/26 09:49:01;;;;;;;5.80;2.80;;;;;;;18.53;81.97;102108.31;5037062;27;98917;-31
2023/09/26 09:51:26;;;;;;;5.82;3.15;;;;;;;18.57;81.71;102101.63;5037181;27;96603;-28
2023/09/26 09:53:54;;;;;;;5.45;3.15;;;;;;;18.77;81.49;102102.88;5056231;27;96734;-27
2023/09/26 09:56:24;;;;;;;6.18;3.35;;;;;;;18.89;79.50;102108.28;5037053;27;100831;-27
2023/09/26 09:58:51;;;;;;;5.60;3.13;;;;;;;18.98;79.37;102112.22;5035754;27;101153;-28
2023/09/26 10:01:20;;;;;;;7.65;3.80;;;;;;;19.07;79.21;102106.00;5033076;28;96988;-27
2023/09/26 10:03:50;;;;;;;6.20;3.47;;;;;;;19.03;78.54;102109.13;5035656;27;96974;-27
2023/09/26 10:06:16;;;;;;;5.05;2.85;;;;;;;19.04;79.48;102108.09;5036866;27;99148;-27
2023/09/26 10:08:42;;;;;;;6.05;3.35;;;;;;;19.11;78.04;102112.13;5055217;27;97849;-29
2023/09/26 10:11:09;;;;;;;4.00;2.45;;;;;;;19.34;77.55;102114.97;5036899;27;96707;-28
2023/09/26 10:13:35;;;;;;;5.90;3.00;;;;;;;19.51;76.72;102104.38;5036935;27;96873;-27
2023/09/26 10:16:18;;;;;;;5.57;3.13;;;;;;;19.76;75.24;102118.97;5055306;27;98095;-27
2023/09/26 10:18:45;;;;;;;5.18;2.78;;;;;;;20.03;74.45;102104.84;5054554;27;99159;-27
2023/09/26 10:21:25;;;;;;;5.35;3.08;;;;;;;20.24;73.29;102101.34;5035144;27;97006;-27
2023/09/26 10:24:16;;;;;;;7.80;3.08;;;;;;;20.44;72.17;102091.41;5054921;27;96756;-27
2023/09/26 10:26:49;;;;;;;5.97;3.08;;;;;;;20.65;72.87;102072.25;5053223;27;98153;-27
2023/09/26 10:29:14;;;;;;;5.28;2.55;;;;;;;21.06;71.45;102065.94;5036546;27;101349;-27
2023/09/26 10:31:46;;;;;;;6.10;2.80;;;;;;;21.18;70.46;102058.47;5054351;27;96854;-27
2023/09/26 10:34:12;;;;;;;7.13;3.45;;;;;;;21.42;68.21;102072.88;5036636;27;96707;-27
2023/09/26 10:36:38;;;;;;;6.22;3.03;;;;;;;21.54;69.64;102081.94;5054348;27;99363;-27
2023/09/26 10:39:08;;;;;;;5.57;2.88;;;;;;;21.63;67.43;102086.66;5054447;27;99293;-27
2023/09/26 10:41:36;;;;;;;6.43;2.83;;;;;;;21.64;67.94;102079.25;5034624;27;96713;-31
2023/09/26 10:44:04;;;;;;;5.78;2.83;;;;;;;21.85;68.30;102076.47;5034276;27;97286;-28
2023/09/26 10:46:30;;;;;;;5.85;2.60;;;;;;;21.99;65.39;102076.09;5051655;27;97980;-29
2023/09/26 10:48:56;;;;;;;5.72;2.72;;;;;;;22.17;67.50;102061.63;5033961;27;100832;-28
2023/09/26 10:51:22;;;;;;;4.35;2.90;;;;;;;22.33;66.85;102050.94;5034250;27;96985;-27
2023/09/26 10:53:47;;;;;;;5.88;2.17;;;;;;;22.33;66.25;102045.41;5053956;27;96823;-28
2023/09/26 10:56:14;;;;;;;5.75;2.50;;;;;;;22.16;67.30;102054.34;5053788;27;97369;-26
2023/09/26 10:58:44;;;;;;;3.72;2.17;;;;;;;21.87;64.99;102057.03;5034040;27;101049;-27
2023/09/26 11:01:09;;;;;;;3.30;1.73;;;;;;;21.90;66.28;102052.09;5052714;27;96661;-27
2023/09/26 11:03:35;;;;;;;4.32;2.00;;;;;;;22.17;66.23;102048.72;5053849;27;96804;-28
2023/09/26 11:06:01;;;;;;;5.75;2.10;;;;;;;22.31;65.44;102050.25;5053275;27;99404;-29
2023/09/26 11:08:27;;;;;;;2.58;1.75;;;;;;;22.54;64.21;102056.34;5035384;27;100898;-26
2023/09/26 11:10:53;;;;;;;2.97;2.03;;;;;;;22.72;65.02;102053.78;5035833;27;96776;-27
2023/09/26 11:13:21;;;;;;;5.78;2.20;;;;;;;22.89;64.20;102046.66;5035310;27;96979;-27
2023/09/26 11:15:51;;;;;;;5.57;2.13;;;;;;;22.94;62.91;102040.69;5034163;27;99652;-27
2023/09/26 11:18:16;;;;;;;4.95;2.30;;;;;;;22.76;62.19;102044.16;5053812;27;99392;-27
2023/09/26 11:20:42;;;;;;;3.63;2.20;;;;;;;22.75;63.42;102041.56;5053172;27;96933;-27